»·PEaware :: N9907W KSBA-KSAN

N9907W :: KSBA-KSAN

FLIGHT INFORMATION

Flight Status: Arrived
Operator: Privately registered:
United States
More flights under this callsign
Pilot: Remy S. (22786)
Aircraft: PIPER PA-28 CHEROKEE ARCHER
(P28A)
More flights by this aircraft type
Origin: KSBA Santa Barbara Mun
United States
Destination: KSAN San Diego Intl-Lindbergh
United States
More flights between these airports :: More routes between these airports
Route: +
File this flight plan on PilotEdge
Remarks: FFS
Altitude:
(Current/Filed)
0ft
Speed:
(Current/Filed)
0kts
Departed: 06-Feb-19 03:37 PM
Arrived: 06-Feb-19 05:17 PM
Distance/Time
Traveled:
167nm/1:40
Distance/Time
To Go:
Arrived

Flight Plot

Page will automatically refresh every two minutes.

Flight plan parsing failed; only flown route is shown


Map Options




Map Legend


Flown Route
Filed Route
Departure Airport
Arrival Airport
Navaid (VOR, NDB)
Fix

Horizontal Profiles

Position Reports

Time Latitude Longitude Heading Altitude Ground
Speed
06-Feb-19 15:24 34.431353 -119.839220 145 12ft 0kts
06-Feb-19 15:25 34.431353 -119.839220 145 12ft 0kts
06-Feb-19 15:26 34.431353 -119.839220 145 12ft 0kts
06-Feb-19 15:27 34.431353 -119.839220 145 12ft 0kts
06-Feb-19 15:28 34.431353 -119.839220 145 12ft 0kts
06-Feb-19 15:29 34.431353 -119.839220 145 12ft 0kts
06-Feb-19 15:30 34.431353 -119.839220 145 12ft 0kts
06-Feb-19 15:31 34.431055 -119.838805 95 12ft 7kts
06-Feb-19 15:32 34.431888 -119.835403 130 12ft 12kts
06-Feb-19 15:33 34.429001 -119.834706 110 8ft 1kts
06-Feb-19 15:34 34.428779 -119.834636 175 8ft 0kts
06-Feb-19 15:35 34.428779 -119.834636 175 8ft 0kts
06-Feb-19 15:36 34.427787 -119.839541 266 11ft 66kts
06-Feb-19 15:37 34.426917 -119.867724 267 665ft 72kts
06-Feb-19 15:38 34.426103 -119.893522 267 1301ft 77kts
06-Feb-19 15:39 34.415783 -119.909681 150 1932ft 69kts
06-Feb-19 15:40 34.400403 -119.897005 139 2558ft 66kts
06-Feb-19 15:41 34.385939 -119.883470 139 3155ft 64kts
06-Feb-19 15:42 34.375226 -119.866078 123 3729ft 62kts
06-Feb-19 15:43 34.365660 -119.848079 131 4272ft 61kts
06-Feb-19 15:44 34.354418 -119.832028 132 4784ft 60kts
06-Feb-19 15:45 34.343738 -119.815713 132 5266ft 60kts
06-Feb-19 15:46 34.332113 -119.797051 131 5508ft 89kts
06-Feb-19 15:47 34.312929 -119.768357 132 5496ft 109kts
06-Feb-19 15:48 34.294137 -119.740239 132 5496ft 100kts
06-Feb-19 15:49 34.275814 -119.712992 132 5500ft 104kts
06-Feb-19 15:50 34.256429 -119.684729 132 5501ft 106kts
06-Feb-19 15:51 34.236985 -119.656873 132 5503ft 104kts
06-Feb-19 15:52 34.214515 -119.629820 132 5513ft 124kts
06-Feb-19 15:53 34.187985 -119.597642 124 5510ft 133kts
06-Feb-19 15:54 34.163298 -119.562782 124 5513ft 133kts
06-Feb-19 15:55 34.138573 -119.527613 123 5516ft 133kts
06-Feb-19 15:56 34.113974 -119.492388 123 5517ft 134kts
06-Feb-19 15:57 34.089129 -119.456773 123 5518ft 134kts
06-Feb-19 15:58 34.064402 -119.421341 123 5518ft 134kts
06-Feb-19 15:59 34.039600 -119.386099 123 5519ft 134kts
06-Feb-19 16:00 34.014694 -119.351197 123 5520ft 133kts
06-Feb-19 16:01 33.994215 -119.317082 124 5514ft 103kts
06-Feb-19 16:02 33.977786 -119.289034 131 5520ft 100kts
06-Feb-19 16:03 33.960119 -119.260776 131 5488ft 105kts
06-Feb-19 16:04 33.942440 -119.231724 131 5503ft 104kts
06-Feb-19 16:05 33.924965 -119.202290 131 5504ft 105kts
06-Feb-19 16:06 33.907545 -119.172520 131 5504ft 106kts
06-Feb-19 16:07 33.888815 -119.144020 134 5509ft 106kts
06-Feb-19 16:08 33.869508 -119.114938 134 5509ft 109kts
06-Feb-19 16:09 33.849892 -119.085490 134 5509ft 110kts
06-Feb-19 16:10 33.830236 -119.055996 134 5508ft 110kts
06-Feb-19 16:11 33.810457 -119.026451 133 5509ft 110kts
06-Feb-19 16:12 33.789519 -118.998791 135 5509ft 108kts
06-Feb-19 16:13 33.767908 -118.971949 135 5510ft 108kts
06-Feb-19 16:14 33.747441 -118.943966 132 5510ft 108kts
06-Feb-19 16:15 33.726493 -118.916449 132 5510ft 109kts
06-Feb-19 16:16 33.705646 -118.888375 131 5509ft 109kts
06-Feb-19 16:17 33.684867 -118.860133 131 5508ft 110kts
06-Feb-19 16:18 33.664314 -118.831548 131 5506ft 110kts
06-Feb-19 16:19 33.644050 -118.802357 131 5503ft 111kts
06-Feb-19 16:20 33.624087 -118.772158 131 5464ft 114kts
06-Feb-19 16:21 33.604533 -118.740964 131 5462ft 114kts
06-Feb-19 16:22 33.585113 -118.708988 131 5461ft 115kts
06-Feb-19 16:23 33.565675 -118.676931 131 5461ft 115kts
06-Feb-19 16:24 33.546260 -118.644919 131 5461ft 115kts
06-Feb-19 16:25 33.526896 -118.612981 131 5461ft 115kts
06-Feb-19 16:26 33.507452 -118.580898 131 5461ft 115kts
06-Feb-19 16:28 33.488056 -118.548856 131 5461ft 115kts
06-Feb-19 16:29 33.468788 -118.517026 131 5461ft 113kts
06-Feb-19 16:30 33.449858 -118.485666 131 5460ft 111kts
06-Feb-19 16:31 33.431264 -118.454690 131 5461ft 112kts
06-Feb-19 16:32 33.412196 -118.423049 131 5461ft 114kts
06-Feb-19 16:33 33.404019 -118.383801 111 5460ft 120kts
06-Feb-19 16:34 33.394676 -118.345025 106 5461ft 121kts
06-Feb-19 16:35 33.388874 -118.304165 106 5461ft 121kts
06-Feb-19 16:36 33.382638 -118.263882 106 5461ft 118kts
06-Feb-19 16:37 33.375795 -118.224584 106 5461ft 116kts
06-Feb-19 16:38 33.368301 -118.186005 106 5461ft 115kts
06-Feb-19 16:39 33.360280 -118.147913 106 5461ft 114kts
06-Feb-19 16:40 33.352745 -118.109731 107 5461ft 114kts
06-Feb-19 16:41 33.343427 -118.072116 107 5461ft 115kts
06-Feb-19 16:42 33.333786 -118.034456 107 5461ft 115kts
06-Feb-19 16:43 33.323671 -117.996776 107 5461ft 116kts
06-Feb-19 16:44 33.313015 -117.958766 107 5461ft 118kts
06-Feb-19 16:45 33.302026 -117.920141 107 5461ft 121kts
06-Feb-19 16:46 33.291056 -117.880397 107 5461ft 123kts
06-Feb-19 16:47 33.280246 -117.840175 107 5461ft 125kts
06-Feb-19 16:47 33.271530 -117.807104 107 4764ft 116kts
06-Feb-19 16:49 33.259537 -117.764342 118 3620ft 112kts
06-Feb-19 16:50 33.243147 -117.732487 121 3464ft 117kts
06-Feb-19 16:50 33.227735 -117.703001 121 3479ft 125kts
06-Feb-19 16:51 33.208090 -117.666483 121 3480ft 128kts
06-Feb-19 16:52 33.187927 -117.630295 121 3479ft 125kts
06-Feb-19 16:53 33.167789 -117.595096 121 3480ft 124kts
06-Feb-19 16:54 33.148784 -117.560865 121 3477ft 117kts
06-Feb-19 16:55 33.130821 -117.527366 121 3476ft 115kts
06-Feb-19 16:56 33.113696 -117.493826 121 3474ft 114kts
06-Feb-19 16:57 33.097049 -117.459890 121 3473ft 114kts
06-Feb-19 16:58 33.080841 -117.425722 121 3472ft 115kts
06-Feb-19 16:59 33.064991 -117.391263 121 3471ft 116kts
06-Feb-19 17:00 33.049273 -117.356194 121 3469ft 117kts
06-Feb-19 17:01 33.029322 -117.326205 154 3470ft 114kts
06-Feb-19 17:02 32.999611 -117.310925 163 3470ft 113kts
06-Feb-19 17:03 32.968725 -117.298683 163 3471ft 113kts
06-Feb-19 17:04 32.938122 -117.286477 163 3473ft 113kts
06-Feb-19 17:05 32.907792 -117.274511 163 3475ft 112kts
06-Feb-19 17:06 32.877651 -117.261822 161 3480ft 113kts
06-Feb-19 17:07 32.847823 -117.248919 161 3393ft 104kts
06-Feb-19 17:08 32.822569 -117.238234 160 2717ft 92kts
06-Feb-19 17:09 32.801173 -117.224868 145 2320ft 74kts
06-Feb-19 17:10 32.781841 -117.209824 147 2230ft 86kts
06-Feb-19 17:11 32.765947 -117.188931 76 1822ft 103kts
06-Feb-19 17:12 32.765175 -117.155389 109 1169ft 96kts
06-Feb-19 17:13 32.751616 -117.133617 181 777ft 89kts
06-Feb-19 17:14 32.728117 -117.138074 201 731ft 76kts
06-Feb-19 17:15 32.727046 -117.163766 289 425ft 82kts
06-Feb-19 17:16 32.732929 -117.187534 283 14ft 18kts
06-Feb-19 17:17 32.734104 -117.188059 24 15ft 4kts
06-Feb-19 17:18 32.734863 -117.188171 305 15ft 0kts
06-Feb-19 17:19 32.734863 -117.188171 305 15ft 0kts
06-Feb-19 17:20 32.734863 -117.188171 305 15ft 0kts
06-Feb-19 17:21 32.734863 -117.188171 305 15ft 0kts
06-Feb-19 17:22 32.734863 -117.188171 305 15ft 0kts

Navigation Log

Ident Type
Flight plan parsing failed, navigation log unavailable